Time;durP1;ratioP1;P1;durP2;ratioP2;P2;SDS_P1;SDS_P2;PMS_P1;PMS_P2;Temp;Humidity;BMP_temperature;BMP_pressure;BME280_temperature;BME280_humidity;BME280_pressure;Samples;Min_cycle;Max_cycle;Signal;HPM_P1;HPM_P2
2023/07/07 00:00:10;;;;;;;7.10;4.78;;;13.80;99.90;;;;;;5073739;28;20051;-72
2023/07/07 00:02:36;;;;;;;7.00;4.35;;;13.80;99.90;;;;;;5070920;28;20503;-72
2023/07/07 00:05:05;;;;;;;6.68;4.65;;;13.80;99.90;;;;;;5074181;28;20074;-72
2023/07/07 00:07:31;;;;;;;10.05;5.03;;;13.70;99.90;;;;;;5077215;28;20453;-71
2023/07/07 00:10:00;;;;;;;8.98;4.85;;;13.60;99.90;;;;;;5077078;28;20040;-72
2023/07/07 00:12:30;;;;;;;7.93;4.43;;;13.60;99.90;;;;;;5076684;28;20105;-73
2023/07/07 00:14:55;;;;;;;8.30;4.35;;;13.50;99.90;;;;;;5088211;28;20051;-72
2023/07/07 00:17:21;;;;;;;8.38;4.70;;;13.50;99.90;;;;;;5057171;28;20052;-72
2023/07/07 00:19:49;;;;;;;9.35;4.43;;;13.50;99.90;;;;;;5056393;28;20408;-72
2023/07/07 00:22:14;;;;;;;7.65;4.30;;;13.40;99.90;;;;;;5085630;28;20082;-71
2023/07/07 00:24:40;;;;;;;8.20;4.35;;;13.40;99.90;;;;;;5065723;28;20045;-71
2023/07/07 00:27:06;;;;;;;7.57;4.20;;;13.50;99.90;;;;;;5056850;28;20044;-71
2023/07/07 00:29:31;;;;;;;8.13;4.53;;;13.40;99.90;;;;;;5075126;28;20511;-71
2023/07/07 00:31:58;;;;;;;7.03;4.45;;;13.40;99.90;;;;;;5057198;28;20040;-72
2023/07/07 00:34:26;;;;;;;5.75;4.05;;;13.40;99.90;;;;;;5056045;28;20045;-72
2023/07/07 00:36:52;;;;;;;6.05;4.05;;;13.30;99.90;;;;;;5057025;28;20550;-72
2023/07/07 00:39:17;;;;;;;8.77;4.55;;;13.30;99.90;;;;;;5075248;28;20127;-72
2023/07/07 00:41:43;;;;;;;7.53;4.50;;;13.30;99.90;;;;;;5055857;28;20442;-72
2023/07/07 00:44:11;;;;;;;6.18;4.15;;;13.30;99.90;;;;;;5056952;28;20454;-72
2023/07/07 00:46:38;;;;;;;6.78;4.10;;;13.30;99.90;;;;;;5056388;28;20059;-72
2023/07/07 00:49:18;;;;;;;6.97;4.40;;;13.20;99.90;;;;;;5056397;28;20040;-72
2023/07/07 00:51:54;;;;;;;7.15;4.22;;;13.20;99.90;;;;;;5069503;28;20091;-72
2023/07/07 00:54:33;;;;;;;10.15;4.22;;;13.20;99.90;;;;;;5092092;28;20048;-72
2023/07/07 00:57:00;;;;;;;8.18;4.63;;;13.10;99.90;;;;;;5074446;28;20045;-72
2023/07/07 00:59:30;;;;;;;6.18;4.05;;;13.10;99.90;;;;;;5056612;28;20515;-71
2023/07/07 01:02:01;;;;;;;5.78;3.75;;;13.10;99.90;;;;;;5066047;28;20052;-72
2023/07/07 01:04:28;;;;;;;7.90;4.63;;;13.00;99.90;;;;;;5077617;28;20134;-72
2023/07/07 01:06:59;;;;;;;8.55;4.72;;;13.00;99.90;;;;;;5086608;28;20135;-72
2023/07/07 01:09:26;;;;;;;7.82;4.80;;;13.20;99.90;;;;;;5075722;28;20043;-72
2023/07/07 01:11:52;;;;;;;7.85;4.80;;;13.10;99.90;;;;;;5079912;28;20059;-72
2023/07/07 01:14:24;;;;;;;9.00;5.00;;;13.00;99.90;;;;;;5074148;28;20401;-71
2023/07/07 01:17:21;;;;;;;6.90;4.57;;;12.90;99.90;;;;;;5054189;28;20085;-71
2023/07/07 01:20:14;;;;;;;8.50;4.83;;;12.90;99.90;;;;;;5056007;28;20504;-72
2023/07/07 01:23:04;;;;;;;8.48;5.18;;;12.90;99.90;;;;;;5055688;28;20286;-72
2023/07/07 01:25:44;;;;;;;10.80;4.72;;;12.80;99.90;;;;;;5055843;28;20047;-72
2023/07/07 01:28:48;;;;;;;9.07;5.03;;;12.80;99.90;;;;;;5056174;28;20121;-72
2023/07/07 01:31:19;;;;;;;7.28;4.78;;;12.80;99.90;;;;;;5094244;28;20055;-72
2023/07/07 01:33:46;;;;;;;8.05;4.95;;;12.80;99.90;;;;;;5075987;28;20044;-72
2023/07/07 01:36:13;;;;;;;8.88;5.43;;;12.70;99.90;;;;;;5075853;28;20487;-72
2023/07/07 01:38:44;;;;;;;7.93;4.72;;;12.70;99.90;;;;;;5075908;28;20369;-72
2023/07/07 01:41:20;;;;;;;8.23;5.30;;;12.60;99.90;;;;;;5073665;28;20519;-72
2023/07/07 01:43:53;;;;;;;8.13;4.85;;;12.60;99.90;;;;;;5063088;28;20039;-71
2023/07/07 01:46:56;;;;;;;7.97;5.03;;;12.50;99.90;;;;;;5075502;28;20051;-72
2023/07/07 01:49:35;;;;;;;8.48;5.25;;;12.40;99.90;;;;;;5055588;28;20063;-72
2023/07/07 01:52:21;;;;;;;8.00;4.75;;;12.40;99.90;;;;;;5055100;28;20051;-72
2023/07/07 01:55:02;;;;;;;7.60;4.63;;;12.40;99.90;;;;;;5073116;28;20530;-72
2023/07/07 01:57:28;;;;;;;8.27;4.63;;;12.30;99.90;;;;;;5058863;28;20106;-71
2023/07/07 01:59:55;;;;;;;10.35;5.30;;;12.30;99.90;;;;;;5074940;28;20040;-71
2023/07/07 02:02:22;;;;;;;9.20;5.32;;;12.30;99.90;;;;;;5075573;28;20431;-71
2023/07/07 02:04:48;;;;;;;9.15;4.80;;;12.20;99.90;;;;;;5074818;28;20440;-72
2023/07/07 02:07:16;;;;;;;8.25;4.88;;;12.20;99.90;;;;;;5056651;28;20493;-71
2023/07/07 02:09:41;;;;;;;8.80;5.40;;;12.10;99.90;;;;;;5055465;28;20040;-71
2023/07/07 02:12:08;;;;;;;8.02;4.50;;;12.10;99.90;;;;;;5055240;28;20049;-72
2023/07/07 02:14:33;;;;;;;7.88;4.93;;;12.10;99.90;;;;;;5072490;28;20101;-72
2023/07/07 02:16:59;;;;;;;8.07;5.13;;;12.10;99.90;;;;;;5059152;28;20476;-72
2023/07/07 02:19:28;;;;;;;7.90;4.80;;;12.00;99.90;;;;;;5074682;28;20487;-71
2023/07/07 02:21:54;;;;;;;10.23;5.25;;;12.00;99.90;;;;;;5054911;28;20072;-72
2023/07/07 02:24:19;;;;;;;7.63;4.95;;;11.90;99.90;;;;;;5055400;28;20540;-71
2023/07/07 02:26:45;;;;;;;8.35;4.80;;;11.90;99.90;;;;;;5071429;28;20508;-72
2023/07/07 02:29:10;;;;;;;;;;;11.90;99.90;;;;;;5071935;28;20151;-72
2023/07/07 02:31:39;;;;;;;10.45;5.45;;;11.90;99.90;;;;;;5054701;28;19920;-72
2023/07/07 02:34:04;;;;;;;8.20;5.10;;;11.80;99.90;;;;;;5054967;28;20385;-72
2023/07/07 02:36:30;;;;;;;8.65;5.30;;;11.80;99.90;;;;;;5056090;28;20044;-72
2023/07/07 02:38:56;;;;;;;;;;;11.80;99.90;;;;;;5054754;28;20057;-72
2023/07/07 02:41:24;;;;;;;10.73;5.38;;;11.80;99.90;;;;;;5073326;28;19920;-72
2023/07/07 02:43:50;;;;;;;9.02;5.65;;;11.70;99.90;;;;;;5055966;28;20404;-72
2023/07/07 02:46:22;;;;;;;11.85;5.30;;;11.70;99.90;;;;;;5072421;28;20040;-72
2023/07/07 02:48:48;;;;;;;8.15;5.45;;;11.70;99.90;;;;;;5054718;28;20044;-72
2023/07/07 02:51:13;;;;;;;7.10;5.00;;;11.70;99.90;;;;;;5054785;28;20393;-72
2023/07/07 02:53:42;;;;;;;7.82;5.38;;;11.70;99.90;;;;;;5053949;28;20463;-72
2023/07/07 02:56:08;;;;;;;10.30;5.70;;;11.60;99.90;;;;;;5054675;28;20052;-72
2023/07/07 02:58:34;;;;;;;8.98;5.60;;;11.60;99.90;;;;;;5072276;28;20584;-73
2023/07/07 03:01:12;;;;;;;11.05;5.57;;;11.60;99.90;;;;;;5054243;28;20131;-72
2023/07/07 03:03:39;;;;;;;7.55;5.38;;;11.50;99.90;;;;;;5080830;28;20051;-72
2023/07/07 03:06:20;;;;;;;8.30;5.85;;;11.50;99.90;;;;;;5092634;28;20059;-72
2023/07/07 03:08:46;;;;;;;7.55;5.45;;;11.50;99.90;;;;;;5091748;28;20564;-72
2023/07/07 03:11:14;;;;;;;9.52;5.63;;;11.40;99.90;;;;;;5072424;28;20047;-72
2023/07/07 03:13:41;;;;;;;9.13;5.68;;;11.40;99.90;;;;;;5071372;28;20175;-72
2023/07/07 03:16:20;;;;;;;9.75;5.55;;;11.50;99.90;;;;;;5054193;28;20045;-72
2023/07/07 03:18:55;;;;;;;9.25;5.65;;;11.40;99.90;;;;;;5054896;28;20106;-72
2023/07/07 03:21:22;;;;;;;9.68;5.88;;;11.30;99.90;;;;;;5053883;28;20057;-72
2023/07/07 03:23:55;;;;;;;8.52;5.13;;;11.30;99.90;;;;;;5072122;28;20040;-72
2023/07/07 03:26:23;;;;;;;8.40;5.53;;;11.30;99.90;;;;;;5056545;28;20075;-72
2023/07/07 03:28:49;;;;;;;8.23;5.32;;;11.20;99.90;;;;;;5054195;28;20072;-72
2023/07/07 03:31:24;;;;;;;7.90;5.47;;;11.20;99.90;;;;;;5072178;28;20072;-72
2023/07/07 03:33:52;;;;;;;9.05;5.70;;;11.20;99.90;;;;;;5054435;28;20103;-72
2023/07/07 03:36:21;;;;;;;8.43;5.53;;;11.20;99.90;;;;;;5053976;28;20053;-72
2023/07/07 03:38:47;;;;;;;12.95;6.30;;;11.20;99.90;;;;;;5054425;28;20041;-72
2023/07/07 03:41:17;;;;;;;9.88;5.60;;;11.20;99.90;;;;;;5076776;28;20036;-70
2023/07/07 03:43:45;;;;;;;9.07;5.32;;;11.20;99.90;;;;;;5075505;28;20082;-72
2023/07/07 03:46:15;;;;;;;7.65;5.00;;;11.30;99.90;;;;;;5076797;28;20052;-72
2023/07/07 03:48:44;;;;;;;10.45;5.25;;;11.30;99.90;;;;;;5076529;28;20474;-72
2023/07/07 03:51:12;;;;;;;8.35;5.40;;;11.30;99.90;;;;;;5079296;28;20090;-72
2023/07/07 03:53:38;;;;;;;8.32;4.72;;;11.30;99.90;;;;;;5095949;28;20051;-72
2023/07/07 03:56:05;;;;;;;9.85;5.65;;;11.40;99.90;;;;;;5096003;28;20500;-72
2023/07/07 03:58:35;;;;;;;8.77;5.82;;;11.40;99.90;;;;;;5077199;28;20119;-72
2023/07/07 04:01:03;;;;;;;10.18;5.30;;;12.20;99.90;;;;;;5096143;28;20077;-72
2023/07/07 04:03:30;;;;;;;9.13;5.88;;;11.40;99.90;;;;;;5077863;28;20396;-72
2023/07/07 04:05:56;;;;;;;9.77;6.43;;;11.40;99.90;;;;;;5095518;28;20055;-72
2023/07/07 04:08:23;;;;;;;;;;;11.50;99.90;;;;;;5095546;28;20040;-73
2023/07/07 04:11:05;;;;;;;;;;;11.60;99.90;;;;;;5077763;28;19920;-72
2023/07/07 04:13:36;;;;;;;8.82;5.93;;;11.60;99.90;;;;;;5082785;28;20391;-72
2023/07/07 04:16:03;;;;;;;11.23;6.32;;;11.60;99.90;;;;;;5070153;28;20059;-72
2023/07/07 04:18:34;;;;;;;10.38;6.80;;;11.60;99.90;;;;;;5095669;28;20079;-72
2023/07/07 04:21:01;;;;;;;10.88;7.10;;;11.70;99.90;;;;;;5095385;28;20051;-72
2023/07/07 04:23:27;;;;;;;13.32;7.35;;;11.80;99.90;;;;;;5084136;28;20037;-72
2023/07/07 04:25:53;;;;;;;11.95;7.43;;;11.80;99.90;;;;;;5082460;28;20028;-72
2023/07/07 04:28:25;;;;;;;11.95;6.95;;;11.90;99.90;;;;;;5071859;28;20044;-72
2023/07/07 04:30:56;;;;;;;10.90;8.10;;;11.90;99.90;;;;;;5059307;28;20048;-72
2023/07/07 04:33:23;;;;;;;12.15;8.38;;;12.00;99.90;;;;;;5071169;28;20075;-72
2023/07/07 04:35:56;;;;;;;14.38;8.38;;;12.10;99.90;;;;;;5074900;28;20036;-72
2023/07/07 04:38:30;;;;;;;14.02;9.00;;;12.20;99.90;;;;;;5082806;28;20036;-72
2023/07/07 04:41:14;;;;;;;14.02;8.68;;;12.30;99.90;;;;;;5074596;28;20122;-72
2023/07/07 04:43:45;;;;;;;14.32;9.15;;;12.40;99.90;;;;;;5076941;28;20043;-72
2023/07/07 04:46:14;;;;;;;14.15;9.18;;;12.50;99.90;;;;;;5094897;28;20051;-72
2023/07/07 04:48:40;;;;;;;16.27;9.85;;;12.60;99.90;;;;;;5077514;28;20052;-73
2023/07/07 04:51:10;;;;;;;13.43;9.20;;;12.70;99.90;;;;;;5075813;28;20043;-72
2023/07/07 04:53:37;;;;;;;15.43;9.80;;;12.90;99.90;;;;;;5070199;28;20455;-72
2023/07/07 04:56:15;;;;;;;14.00;10.27;;;12.90;99.90;;;;;;5080310;28;20037;-72
2023/07/07 04:58:44;;;;;;;16.42;10.32;;;13.10;99.90;;;;;;5076723;28;20060;-72
2023/07/07 05:01:23;;;;;;;17.85;9.48;;;13.20;99.90;;;;;;5074177;28;20559;-72
2023/07/07 05:03:51;;;;;;;14.02;10.15;;;13.30;99.90;;;;;;5064990;28;20040;-72
2023/07/07 05:06:26;;;;;;;13.82;9.45;;;13.30;99.90;;;;;;5064033;28;20436;-72
2023/07/07 05:08:52;;;;;;;15.43;10.50;;;13.40;99.90;;;;;;5068463;28;20056;-72
2023/07/07 05:11:21;;;;;;;16.88;10.32;;;13.50;99.90;;;;;;5085834;28;20028;-71
2023/07/07 05:13:49;;;;;;;16.48;10.98;;;13.60;99.90;;;;;;5055592;28;20045;-72
2023/07/07 05:16:21;;;;;;;13.27;9.95;;;13.70;99.90;;;;;;5073175;28;20036;-72
2023/07/07 05:18:47;;;;;;;16.20;10.63;;;13.80;99.90;;;;;;5082209;28;20446;-72
2023/07/07 05:21:18;;;;;;;15.48;10.30;;;13.90;99.90;;;;;;5055736;28;20051;-74
2023/07/07 05:23:47;;;;;;;14.27;10.43;;;14.00;99.90;;;;;;5074243;28;20040;-75
2023/07/07 05:26:12;;;;;;;17.35;10.02;;;14.20;99.90;;;;;;5057188;28;20059;-80
2023/07/07 05:28:41;;;;;;;15.48;9.73;;;14.20;99.90;;;;;;5081933;28;20048;-73
2023/07/07 05:31:07;;;;;;;20.17;11.15;;;14.40;99.90;;;;;;5094458;28;20051;-72
2023/07/07 05:33:34;;;;;;;18.13;11.15;;;14.40;99.90;;;;;;5094398;28;20118;-71
2023/07/07 05:36:03;;;;;;;15.20;10.65;;;14.40;99.90;;;;;;5093560;28;20055;-74
2023/07/07 05:38:29;;;;;;;15.93;10.63;;;14.60;99.90;;;;;;5076194;28;20048;-71
2023/07/07 05:40:55;;;;;;;16.38;10.77;;;14.70;99.90;;;;;;5075512;28;20503;-71
2023/07/07 05:43:22;;;;;;;15.13;10.32;;;14.80;99.90;;;;;;5076139;28;20044;-71
2023/07/07 05:45:58;;;;;;;16.67;10.07;;;14.80;99.90;;;;;;5093988;28;20048;-72
2023/07/07 05:48:24;;;;;;;15.23;10.38;;;14.90;99.90;;;;;;5094513;28;20119;-73
2023/07/07 05:50:52;;;;;;;15.90;10.40;;;14.90;99.90;;;;;;5074885;28;20497;-74
2023/07/07 05:53:18;;;;;;;13.10;9.88;;;15.00;99.90;;;;;;5075553;28;20048;-72
2023/07/07 05:55:47;;;;;;;16.20;10.77;;;15.10;99.90;;;;;;5076080;28;20043;-72
2023/07/07 05:58:15;;;;;;;14.50;10.45;;;15.20;99.90;;;;;;5075021;28;20452;-73
2023/07/07 06:00:44;;;;;;;16.63;11.20;;;15.20;99.90;;;;;;5073081;28;20162;-72
2023/07/07 06:03:10;;;;;;;16.77;10.73;;;15.30;99.90;;;;;;5093064;28;20044;-74
2023/07/07 06:05:35;;;;;;;20.10;10.75;;;15.40;99.90;;;;;;5074919;28;20047;-72
2023/07/07 06:08:04;;;;;;;14.32;10.55;;;15.50;99.90;;;;;;5093151;28;20463;-72
2023/07/07 06:10:30;;;;;;;15.73;10.48;;;15.60;99.90;;;;;;5092288;28;20047;-73
2023/07/07 06:13:01;;;;;;;14.13;10.55;;;15.70;99.90;;;;;;5074379;28;20416;-72
2023/07/07 06:15:30;;;;;;;16.60;10.38;;;15.70;99.90;;;;;;5093416;28;20048;-72
2023/07/07 06:17:57;;;;;;;15.10;9.88;;;15.90;99.90;;;;;;5092108;28;20040;-72
2023/07/07 06:20:22;;;;;;;16.02;10.45;;;15.90;99.90;;;;;;5080014;28;20439;-72
2023/07/07 06:22:49;;;;;;;13.68;10.20;;;16.00;99.90;;;;;;5071231;28;20621;-73
2023/07/07 06:25:14;;;;;;;14.98;10.10;;;16.10;99.90;;;;;;5052852;28;20127;-73
2023/07/07 06:27:40;;;;;;;13.95;9.77;;;16.20;99.90;;;;;;5071321;28;20124;-72
2023/07/07 06:30:07;;;;;;;14.88;9.73;;;16.40;99.90;;;;;;5070984;28;20048;-73
2023/07/07 06:32:33;;;;;;;15.43;9.98;;;16.40;99.90;;;;;;5052801;28;20477;-73
2023/07/07 06:35:02;;;;;;;14.32;8.93;;;16.50;99.90;;;;;;5071886;28;20041;-74
2023/07/07 06:37:29;;;;;;;15.18;9.32;;;16.60;99.90;;;;;;5072469;28;20040;-76
2023/07/07 06:39:55;;;;;;;14.85;9.63;;;16.80;99.90;;;;;;5053760;28;20427;-74
2023/07/07 06:42:21;;;;;;;15.25;9.45;;;16.80;99.90;;;;;;5055355;28;20056;-72
2023/07/07 06:44:47;;;;;;;14.60;9.68;;;16.90;99.90;;;;;;5072288;28;20080;-74
2023/07/07 06:47:16;;;;;;;13.00;9.05;;;17.00;99.90;;;;;;5072154;28;20071;-72
2023/07/07 06:49:42;;;;;;;13.50;8.63;;;17.00;99.90;;;;;;5054515;28;20056;-73
2023/07/07 06:52:11;;;;;;;14.75;8.70;;;17.20;99.90;;;;;;5072855;28;20083;-72
2023/07/07 06:54:37;;;;;;;12.57;8.30;;;17.20;99.90;;;;;;5062348;28;20093;-73
2023/07/07 06:57:03;;;;;;;12.65;7.75;;;17.30;99.90;;;;;;5074583;28;20434;-72
2023/07/07 06:59:29;;;;;;;11.23;7.85;;;17.50;99.90;;;;;;5091937;28;20097;-74
2023/07/07 07:01:58;;;;;;;13.43;8.25;;;17.60;99.90;;;;;;5073716;28;20113;-72
2023/07/07 07:04:24;;;;;;;12.75;7.65;;;17.70;99.90;;;;;;5093436;28;20036;-72
2023/07/07 07:06:49;;;;;;;8.70;6.85;;;17.70;99.90;;;;;;5092013;28;20128;-72
2023/07/07 07:09:15;;;;;;;11.50;7.63;;;17.90;99.90;;;;;;5072708;28;20036;-72
2023/07/07 07:11:41;;;;;;;10.55;6.97;;;18.00;99.90;;;;;;5090548;28;20097;-72
2023/07/07 07:14:06;;;;;;;10.07;6.45;;;18.20;99.90;;;;;;5090378;28;20169;-72
2023/07/07 07:16:32;;;;;;;11.48;6.70;;;18.30;99.90;;;;;;5077273;28;20123;-72
2023/07/07 07:18:58;;;;;;;10.13;7.28;;;18.40;99.90;;;;;;5095394;28;20131;-73
2023/07/07 07:21:26;;;;;;;11.70;7.20;;;18.50;99.90;;;;;;5094369;28;20040;-74
2023/07/07 07:23:52;;;;;;;11.02;7.47;;;18.80;99.90;;;;;;5084468;28;20111;-74
2023/07/07 07:26:18;;;;;;;11.10;7.75;;;19.20;99.90;;;;;;5076755;28;20472;-73
2023/07/07 07:28:44;;;;;;;10.88;6.75;;;19.80;99.90;;;;;;5078705;28;20047;-73
2023/07/07 07:31:12;;;;;;;11.13;6.50;;;20.60;99.90;;;;;;5097590;28;20048;-73
2023/07/07 07:33:38;;;;;;;9.48;6.25;;;21.40;99.90;;;;;;5078767;28;20040;-73
2023/07/07 07:36:07;;;;;;;8.52;5.53;;;22.00;99.90;;;;;;5095911;28;20048;-74
2023/07/07 07:38:32;;;;;;;8.95;6.35;;;22.50;99.90;;;;;;5078581;28;20032;-72
2023/07/07 07:40:58;;;;;;;10.40;5.38;;;22.90;99.90;;;;;;5073172;28;20059;-72
2023/07/07 07:43:24;;;;;;;8.40;6.22;;;23.20;99.90;;;;;;5077809;28;20041;-72
2023/07/07 07:45:50;;;;;;;8.63;5.70;;;23.60;99.90;;;;;;5062704;28;20040;-72
2023/07/07 07:48:15;;;;;;;10.13;5.47;;;23.90;99.90;;;;;;5069927;28;20047;-72
2023/07/07 07:50:41;;;;;;;8.35;5.43;;;24.20;99.70;;;;;;5075363;28;20090;-72
2023/07/07 07:53:07;;;;;;;8.18;4.50;;;24.60;99.60;;;;;;5068442;28;20042;-72
2023/07/07 07:55:36;;;;;;;7.35;4.20;;;24.90;98.60;;;;;;5095579;28;20108;-73
2023/07/07 07:58:01;;;;;;;7.03;4.07;;;25.00;97.30;;;;;;5095957;28;20044;-73
2023/07/07 08:00:27;;;;;;;5.82;4.15;;;25.40;98.30;;;;;;5097236;28;20093;-73
2023/07/07 08:02:53;;;;;;;7.85;4.38;;;25.70;96.20;;;;;;5095484;28;20127;-75
2023/07/07 08:05:18;;;;;;;8.65;4.20;;;25.80;96.10;;;;;;5065284;28;20059;-78
2023/07/07 08:07:44;;;;;;;6.30;3.60;;;25.80;96.20;;;;;;5069020;28;20059;-74
2023/07/07 08:10:10;;;;;;;4.82;3.55;;;26.00;95.10;;;;;;5095598;28;20480;-73
2023/07/07 08:12:36;;;;;;;5.75;3.60;;;26.10;94.70;;;;;;5074320;28;20517;-73
2023/07/07 08:15:03;;;;;;;4.97;3.28;;;26.10;94.80;;;;;;5077805;28;20082;-73
2023/07/07 08:17:28;;;;;;;5.88;3.13;;;26.30;94.10;;;;;;5077389;28;20048;-72
2023/07/07 08:19:54;;;;;;;5.60;3.15;;;26.40;94.60;;;;;;5077792;28;20039;-72
2023/07/07 08:22:27;;;;;;;5.15;3.20;;;26.60;93.40;;;;;;5095313;28;20086;-72
2023/07/07 08:24:55;;;;;;;6.03;3.72;;;26.90;94.10;;;;;;5094587;28;20098;-72
2023/07/07 08:27:27;;;;;;;7.38;3.40;;;27.10;92.50;;;;;;5095598;28;20044;-72
2023/07/07 08:29:53;;;;;;;5.47;3.13;;;27.20;92.30;;;;;;5095933;28;20123;-72
2023/07/07 08:32:21;;;;;;;5.38;3.08;;;27.20;92.40;;;;;;5063228;28;20120;-72
2023/07/07 08:34:54;;;;;;;6.45;2.90;;;27.30;92.70;;;;;;5074067;28;20048;-72
2023/07/07 08:37:20;;;;;;;6.70;3.03;;;27.40;92.20;;;;;;5075171;28;20036;-73
2023/07/07 08:39:46;;;;;;;5.05;2.70;;;27.50;92.40;;;;;;5084454;28;20041;-72
2023/07/07 08:42:31;;;;;;;4.97;3.08;;;27.50;92.60;;;;;;5075646;28;20041;-73
2023/07/07 08:44:59;;;;;;;4.80;3.00;;;28.00;92.60;;;;;;5075427;28;20048;-74
2023/07/07 08:47:30;;;;;;;7.55;2.85;;;27.80;92.10;;;;;;5070427;28;20047;-73
2023/07/07 08:50:14;;;;;;;4.80;2.95;;;27.80;92.30;;;;;;5076982;28;20047;-73
2023/07/07 08:53:01;;;;;;;7.97;3.20;;;27.90;91.60;;;;;;5075845;28;20415;-73
2023/07/07 08:55:30;;;;;;;5.75;2.70;;;27.90;91.50;;;;;;5077122;28;20052;-73
2023/07/07 08:58:07;;;;;;;6.15;3.22;;;27.80;91.70;;;;;;5063387;28;20040;-74
2023/07/07 09:01:02;;;;;;;6.72;3.20;;;27.90;91.90;;;;;;5082504;28;20037;-73
2023/07/07 09:03:49;;;;;;;5.82;2.95;;;28.00;92.00;;;;;;5089228;28;20139;-74
2023/07/07 09:06:34;;;;;;;5.82;2.97;;;28.10;91.80;;;;;;5091665;28;20036;-74
2023/07/07 09:09:38;;;;;;;6.45;3.15;;;28.20;92.70;;;;;;5064207;28;20055;-74
2023/07/07 09:12:28;;;;;;;5.07;2.80;;;28.30;91.10;;;;;;5066060;28;20119;-74
2023/07/07 09:14:57;;;;;;;4.30;2.75;;;28.40;91.20;;;;;;5067186;28;20048;-74
2023/07/07 09:17:29;;;;;;;6.75;2.45;;;28.60;90.90;;;;;;5066319;28;20063;-74
2023/07/07 09:20:01;;;;;;;4.35;2.60;;;28.80;89.90;;;;;;5067819;28;20384;-74
2023/07/07 09:22:41;;;;;;;4.32;2.75;;;28.90;90.10;;;;;;5084425;28;20052;-74
2023/07/07 09:25:34;;;;;;;4.53;2.78;;;28.90;90.30;;;;;;5064576;28;20122;-74
2023/07/07 09:28:07;;;;;;;5.35;2.50;;;28.90;89.20;;;;;;5086483;28;20667;-74
2023/07/07 09:30:56;;;;;;;5.55;2.50;;;29.00;90.00;;;;;;5068846;28;20562;-74
2023/07/07 09:33:22;;;;;;;6.40;2.28;;;28.90;89.10;;;;;;5086820;28;20182;-74
2023/07/07 09:36:06;;;;;;;4.72;2.40;;;29.00;87.70;;;;;;5071248;28;20047;-74
2023/07/07 09:39:01;;;;;;;4.50;2.30;;;29.00;88.80;;;;;;5069818;28;20480;-74
2023/07/07 09:41:30;;;;;;;5.28;2.47;;;28.80;87.50;;;;;;5068947;28;20052;-73
2023/07/07 09:44:26;;;;;;;3.80;2.10;;;28.80;88.20;;;;;;5082587;28;20053;-72
2023/07/07 09:47:06;;;;;;;5.03;2.10;;;29.00;87.50;;;;;;5064814;28;20043;-74
2023/07/07 09:49:43;;;;;;;5.60;2.45;;;28.90;85.20;;;;;;5087697;28;20044;-73
2023/07/07 09:52:52;;;;;;;4.43;2.30;;;29.10;87.50;;;;;;5070416;28;20115;-74
2023/07/07 09:55:29;;;;;;;4.57;2.38;;;29.20;87.70;;;;;;5062521;28;20085;-74
2023/07/07 09:58:14;;;;;;;3.67;2.15;;;29.20;85.00;;;;;;5070661;28;20044;-74
2023/07/07 10:00:43;;;;;;;4.40;2.00;;;29.20;81.30;;;;;;5067860;28;20045;-75
2023/07/07 10:03:35;;;;;;;4.97;2.30;;;28.90;82.00;;;;;;5059302;28;20084;-75
2023/07/07 10:06:36;;;;;;;6.07;2.40;;;28.80;82.20;;;;;;5078900;28;20484;-74
2023/07/07 10:09:03;;;;;;;4.50;2.17;;;28.70;83.70;;;;;;5068567;28;20121;-74
2023/07/07 10:11:36;;;;;;;6.95;2.10;;;28.90;82.20;;;;;;5065414;28;20051;-74
2023/07/07 10:14:05;;;;;;;3.63;1.92;;;29.00;82.60;;;;;;5081670;28;20115;-72
2023/07/07 10:16:30;;;;;;;4.68;2.28;;;28.90;81.10;;;;;;5062388;28;20045;-74
2023/07/07 10:19:10;;;;;;;4.25;2.28;;;28.90;81.20;;;;;;5065395;28;20051;-74
2023/07/07 10:21:36;;;;;;;3.42;2.10;;;28.90;82.10;;;;;;5064711;28;20036;-75
2023/07/07 10:24:02;;;;;;;4.50;2.25;;;28.80;79.90;;;;;;5064650;28;20075;-74
2023/07/07 10:26:28;;;;;;;4.53;2.08;;;28.80;81.30;;;;;;5071769;28;20048;-74
2023/07/07 10:29:03;;;;;;;3.53;1.95;;;28.60;82.60;;;;;;5074684;28;20047;-73
2023/07/07 10:31:28;;;;;;;4.10;2.30;;;28.80;82.20;;;;;;5074658;28;20051;-73
2023/07/07 10:34:01;;;;;;;5.15;2.38;;;28.90;83.90;;;;;;5093516;28;20434;-77
2023/07/07 10:36:31;;;;;;;4.55;2.20;;;29.00;79.90;;;;;;5070736;28;20464;-74
2023/07/07 10:38:57;;;;;;;5.45;2.40;;;29.10;82.50;;;;;;5056049;28;20136;-82
2023/07/07 10:41:25;;;;;;;4.82;2.22;;;29.10;80.90;;;;;;5056688;28;20048;-78
2023/07/07 10:43:51;;;;;;;4.38;2.17;;;29.10;80.80;;;;;;5074981;28;20639;-77
2023/07/07 10:46:17;;;;;;;3.13;2.10;;;29.10;81.60;;;;;;5092849;28;20089;-74
2023/07/07 10:48:44;;;;;;;4.72;2.20;;;29.30;79.20;;;;;;5080150;28;20547;-74
2023/07/07 10:51:42;;;;;;;4.45;2.40;;;29.20;79.70;;;;;;5054363;28;20135;-74
2023/07/07 10:54:31;;;;;;;5.55;2.40;;;29.10;79.90;;;;;;5067151;28;20314;-73
2023/07/07 10:57:17;;;;;;;5.88;2.28;;;29.10;81.80;;;;;;5059392;28;20044;-73
2023/07/07 10:59:53;;;;;;;4.07;2.60;;;29.20;80.20;;;;;;5054448;28;20072;-73
2023/07/07 11:03:01;;;;;;;5.40;2.20;;;29.30;79.70;;;;;;5075372;28;20505;-72
2023/07/07 11:05:36;;;;;;;5.40;2.50;;;29.30;80.50;;;;;;5043510;28;20089;-72
2023/07/07 11:08:10;;;;;;;4.07;2.25;;;29.30;79.50;;;;;;5054713;28;20056;-73
2023/07/07 11:10:45;;;;;;;3.95;2.20;;;29.30;82.20;;;;;;5071428;28;20056;-72
2023/07/07 11:13:40;;;;;;;4.85;1.90;;;29.40;80.50;;;;;;5090386;28;20483;-73
2023/07/07 11:16:24;;;;;;;7.07;1.98;;;29.40;80.50;;;;;;5073912;28;20047;-73
2023/07/07 11:19:09;;;;;;;4.10;2.15;;;29.40;78.60;;;;;;5071070;28;20051;-73
2023/07/07 11:22:04;;;;;;;4.13;2.20;;;29.50;79.80;;;;;;5070468;28;20040;-73
2023/07/07 11:24:49;;;;;;;6.43;2.22;;;29.60;82.30;;;;;;5071801;28;20130;-73
2023/07/07 11:27:23;;;;;;;4.13;2.13;;;29.50;80.10;;;;;;5070533;28;20086;-70
2023/07/07 11:30:13;;;;;;;4.50;2.30;;;29.50;81.60;;;;;;5088166;28;20314;-70
2023/07/07 11:33:03;;;;;;;3.97;2.40;;;29.50;80.20;;;;;;5088425;28;20543;-71
2023/07/07 11:35:41;;;;;;;3.58;2.10;;;29.60;80.00;;;;;;5092063;28;20049;-70
2023/07/07 11:38:47;;;;;;;4.00;2.20;;;29.50;79.60;;;;;;5091011;28;20123;-70
2023/07/07 11:41:44;;;;;;;3.92;2.08;;;29.40;79.70;;;;;;5073270;28;20075;-70
2023/07/07 11:44:12;;;;;;;5.13;2.25;;;29.60;81.90;;;;;;5092803;28;20503;-70
2023/07/07 11:47:02;;;;;;;3.63;1.88;;;29.80;83.30;;;;;;5075053;28;20135;-71
2023/07/07 11:49:40;;;;;;;5.45;2.33;;;30.20;81.10;;;;;;5091565;28;20097;-70
2023/07/07 11:52:35;;;;;;;5.85;2.20;;;30.20;80.80;;;;;;5092483;28;20511;-71
2023/07/07 11:55:16;;;;;;;4.30;2.33;;;30.10;79.20;;;;;;5060430;28;20075;-70
2023/07/07 11:58:02;;;;;;;4.53;2.10;;;29.90;80.70;;;;;;5074670;28;20480;-70
2023/07/07 12:00:51;;;;;;;3.42;1.98;;;29.90;78.10;;;;;;5074798;28;20598;-71
2023/07/07 12:03:38;;;;;;;4.30;2.20;;;30.20;78.40;;;;;;5077683;28;20044;-70
2023/07/07 12:06:12;;;;;;;4.05;2.15;;;30.00;80.20;;;;;;5077867;28;20380;-70
2023/07/07 12:09:06;;;;;;;4.25;2.28;;;30.00;77.00;;;;;;5088734;28;20049;-70
2023/07/07 12:11:38;;;;;;;4.95;2.30;;;29.60;77.60;;;;;;5058046;28;20071;-70
2023/07/07 12:14:23;;;;;;;4.38;2.30;;;29.40;79.70;;;;;;5076121;28;20116;-70
2023/07/07 12:16:51;;;;;;;4.03;2.17;;;29.30;78.60;;;;;;5057499;28;20094;-71
2023/07/07 12:19:38;;;;;;;4.20;2.10;;;29.40;80.20;;;;;;5057995;28;20041;-71
2023/07/07 12:22:12;;;;;;;5.07;2.10;;;29.60;79.10;;;;;;5075662;28;20075;-71
2023/07/07 12:25:26;;;;;;;4.15;2.38;;;29.70;78.90;;;;;;5076862;28;20162;-71
2023/07/07 12:27:53;;;;;;;4.10;2.00;;;29.60;80.70;;;;;;5059185;28;20212;-71
2023/07/07 12:30:20;;;;;;;4.60;2.47;;;29.50;80.10;;;;;;5095065;28;20052;-71
2023/07/07 12:32:47;;;;;;;4.45;2.13;;;29.60;82.80;;;;;;5077477;28;20434;-71
2023/07/07 12:35:25;;;;;;;5.13;2.40;;;29.70;79.80;;;;;;5077984;28;20122;-71
2023/07/07 12:37:51;;;;;;;4.03;2.20;;;29.70;81.20;;;;;;5076204;28;20044;-71
2023/07/07 12:40:19;;;;;;;5.93;2.30;;;29.40;80.70;;;;;;5077503;28;20097;-71
2023/07/07 12:42:56;;;;;;;4.10;2.30;;;29.50;80.60;;;;;;5095453;28;20094;-71
2023/07/07 12:45:33;;;;;;;5.93;2.80;;;29.70;77.90;;;;;;5076437;28;20044;-71
2023/07/07 12:48:02;;;;;;;4.32;2.53;;;29.40;78.10;;;;;;5075629;28;20496;-73
2023/07/07 12:50:30;;;;;;;4.20;2.55;;;29.30;80.30;;;;;;5095060;28;20123;-70
2023/07/07 12:53:03;;;;;;;5.18;2.50;;;29.40;80.20;;;;;;5073540;28;20396;-71
2023/07/07 12:55:37;;;;;;;4.15;2.40;;;29.50;79.60;;;;;;5075070;28;20504;-71
2023/07/07 12:58:05;;;;;;;4.32;2.28;;;29.60;80.90;;;;;;5074244;28;20041;-71
2023/07/07 13:00:43;;;;;;;4.03;2.45;;;29.80;80.90;;;;;;5057337;28;20047;-71
2023/07/07 13:03:08;;;;;;;4.22;2.40;;;30.10;79.90;;;;;;5079284;28;20116;-70
2023/07/07 13:05:41;;;;;;;4.50;2.58;;;30.20;79.60;;;;;;5082066;28;20484;-71
2023/07/07 13:08:07;;;;;;;4.75;2.50;;;30.10;82.80;;;;;;5056868;28;20057;-71